sensor_id;sensor_type;location;lat;lon;timestamp;temperature;humidity
40622;DHT22;26324;52.040;11.528;2023-03-14T00:00:11;11.60;82.00
40622;DHT22;26324;52.040;11.528;2023-03-14T00:02:39;11.60;81.90
40622;DHT22;26324;52.040;11.528;2023-03-14T00:05:08;11.50;82.20
40622;DHT22;26324;52.040;11.528;2023-03-14T00:07:37;11.30;82.40
40622;DHT22;26324;52.040;11.528;2023-03-14T00:10:11;11.40;82.40
40622;DHT22;26324;52.040;11.528;2023-03-14T00:12:42;11.30;82.50
40622;DHT22;26324;52.040;11.528;2023-03-14T00:15:11;11.30;82.30
40622;DHT22;26324;52.040;11.528;2023-03-14T00:17:38;11.30;82.40
40622;DHT22;26324;52.040;11.528;2023-03-14T00:20:07;11.20;82.50
40622;DHT22;26324;52.040;11.528;2023-03-14T00:22:39;11.10;82.70
40622;DHT22;26324;52.040;11.528;2023-03-14T00:25:08;11.20;82.70
40622;DHT22;26324;52.040;11.528;2023-03-14T00:27:36;11.20;82.70
40622;DHT22;26324;52.040;11.528;2023-03-14T00:30:05;11.10;82.70
40622;DHT22;26324;52.040;11.528;2023-03-14T00:32:35;11.10;82.80
40622;DHT22;26324;52.040;11.528;2023-03-14T00:35:03;11.00;82.80
40622;DHT22;26324;52.040;11.528;2023-03-14T00:37:30;10.90;83.00
40622;DHT22;26324;52.040;11.528;2023-03-14T00:39:57;10.80;83.10
40622;DHT22;26324;52.040;11.528;2023-03-14T00:42:25;10.80;83.30
40622;DHT22;26324;52.040;11.528;2023-03-14T00:44:53;10.70;83.30
40622;DHT22;26324;52.040;11.528;2023-03-14T00:47:20;10.60;83.60
40622;DHT22;26324;52.040;11.528;2023-03-14T00:49:47;10.60;83.60
40622;DHT22;26324;52.040;11.528;2023-03-14T00:52:15;10.60;83.80
40622;DHT22;26324;52.040;11.528;2023-03-14T00:54:42;10.60;83.80
40622;DHT22;26324;52.040;11.528;2023-03-14T00:57:09;10.60;83.60
40622;DHT22;26324;52.040;11.528;2023-03-14T00:59:36;10.70;83.50
40622;DHT22;26324;52.040;11.528;2023-03-14T01:02:04;10.80;83.50
40622;DHT22;26324;52.040;11.528;2023-03-14T01:04:31;10.80;83.20
40622;DHT22;26324;52.040;11.528;2023-03-14T01:06:58;10.80;83.00
40622;DHT22;26324;52.040;11.528;2023-03-14T01:09:26;10.80;82.80
40622;DHT22;26324;52.040;11.528;2023-03-14T01:11:53;10.90;82.60
40622;DHT22;26324;52.040;11.528;2023-03-14T01:14:20;11.00;82.40
40622;DHT22;26324;52.040;11.528;2023-03-14T01:16:47;11.00;82.30
40622;DHT22;26324;52.040;11.528;2023-03-14T01:19:14;11.00;82.10
40622;DHT22;26324;52.040;11.528;2023-03-14T01:21:42;10.90;82.00
40622;DHT22;26324;52.040;11.528;2023-03-14T01:24:11;11.00;82.00
40622;DHT22;26324;52.040;11.528;2023-03-14T01:26:38;10.90;81.90
40622;DHT22;26324;52.040;11.528;2023-03-14T01:29:07;10.80;82.00
40622;DHT22;26324;52.040;11.528;2023-03-14T01:31:38;10.80;82.20
40622;DHT22;26324;52.040;11.528;2023-03-14T01:34:05;10.80;82.30
40622;DHT22;26324;52.040;11.528;2023-03-14T01:36:33;10.70;82.30
40622;DHT22;26324;52.040;11.528;2023-03-14T01:39:01;10.70;82.30
40622;DHT22;26324;52.040;11.528;2023-03-14T01:41:29;10.60;82.30
40622;DHT22;26324;52.040;11.528;2023-03-14T01:43:58;10.60;82.40
40622;DHT22;26324;52.040;11.528;2023-03-14T01:46:30;10.60;82.30
40622;DHT22;26324;52.040;11.528;2023-03-14T01:51:44;10.60;81.90
40622;DHT22;26324;52.040;11.528;2023-03-14T01:59:31;10.60;81.40
40622;DHT22;26324;52.040;11.528;2023-03-14T02:02:00;10.60;81.20
40622;DHT22;26324;52.040;11.528;2023-03-14T02:04:33;10.60;81.00
40622;DHT22;26324;52.040;11.528;2023-03-14T02:07:20;10.60;80.90
40622;DHT22;26324;52.040;11.528;2023-03-14T02:09:59;10.60;80.90
40622;DHT22;26324;52.040;11.528;2023-03-14T02:12:31;10.70;80.60
40622;DHT22;26324;52.040;11.528;2023-03-14T02:15:10;10.70;80.60
40622;DHT22;26324;52.040;11.528;2023-03-14T02:18:00;10.60;80.40
40622;DHT22;26324;52.040;11.528;2023-03-14T02:21:00;10.70;80.10
40622;DHT22;26324;52.040;11.528;2023-03-14T02:23:31;10.80;79.80
40622;DHT22;26324;52.040;11.528;2023-03-14T02:26:12;10.80;79.40
40622;DHT22;26324;52.040;11.528;2023-03-14T02:28:41;10.80;79.20
40622;DHT22;26324;52.040;11.528;2023-03-14T02:31:09;10.90;78.90
40622;DHT22;26324;52.040;11.528;2023-03-14T02:33:37;11.00;78.50
40622;DHT22;26324;52.040;11.528;2023-03-14T02:36:09;11.00;78.20
40622;DHT22;26324;52.040;11.528;2023-03-14T02:38:45;11.00;78.00
40622;DHT22;26324;52.040;11.528;2023-03-14T02:41:14;11.10;77.70
40622;DHT22;26324;52.040;11.528;2023-03-14T02:43:47;11.10;77.70
40622;DHT22;26324;52.040;11.528;2023-03-14T02:46:18;11.10;77.50
40622;DHT22;26324;52.040;11.528;2023-03-14T02:48:54;11.10;77.00
40622;DHT22;26324;52.040;11.528;2023-03-14T02:51:25;11.10;76.70
40622;DHT22;26324;52.040;11.528;2023-03-14T02:53:53;11.10;76.60
40622;DHT22;26324;52.040;11.528;2023-03-14T02:56:22;11.10;76.20
40622;DHT22;26324;52.040;11.528;2023-03-14T02:58:50;11.10;76.40
40622;DHT22;26324;52.040;11.528;2023-03-14T03:01:28;11.10;76.40
40622;DHT22;26324;52.040;11.528;2023-03-14T03:03:55;11.10;76.40
40622;DHT22;26324;52.040;11.528;2023-03-14T03:06:23;11.10;76.20
40622;DHT22;26324;52.040;11.528;2023-03-14T03:08:50;11.10;76.00
40622;DHT22;26324;52.040;11.528;2023-03-14T03:11:17;11.00;76.60
40622;DHT22;26324;52.040;11.528;2023-03-14T03:13:47;10.80;76.90
40622;DHT22;26324;52.040;11.528;2023-03-14T03:16:15;10.90;76.50
40622;DHT22;26324;52.040;11.528;2023-03-14T03:18:42;11.00;76.00
40622;DHT22;26324;52.040;11.528;2023-03-14T03:21:14;11.10;75.90
40622;DHT22;26324;52.040;11.528;2023-03-14T03:23:43;11.10;75.70
40622;DHT22;26324;52.040;11.528;2023-03-14T03:26:18;11.10;75.70
40622;DHT22;26324;52.040;11.528;2023-03-14T03:28:45;11.10;75.30
40622;DHT22;26324;52.040;11.528;2023-03-14T03:31:15;11.20;75.00
40622;DHT22;26324;52.040;11.528;2023-03-14T03:33:43;11.30;74.70
40622;DHT22;26324;52.040;11.528;2023-03-14T03:36:15;11.30;74.60
40622;DHT22;26324;52.040;11.528;2023-03-14T03:38:42;11.20;74.60
40622;DHT22;26324;52.040;11.528;2023-03-14T03:41:17;11.20;75.00
40622;DHT22;26324;52.040;11.528;2023-03-14T03:43:47;11.10;75.10
40622;DHT22;26324;52.040;11.528;2023-03-14T03:46:17;11.10;75.20
40622;DHT22;26324;52.040;11.528;2023-03-14T03:48:46;11.10;75.40
40622;DHT22;26324;52.040;11.528;2023-03-14T03:51:15;11.00;75.70
40622;DHT22;26324;52.040;11.528;2023-03-14T03:53:44;11.00;75.50
40622;DHT22;26324;52.040;11.528;2023-03-14T03:56:20;11.00;75.80
40622;DHT22;26324;52.040;11.528;2023-03-14T03:58:47;10.90;75.70
40622;DHT22;26324;52.040;11.528;2023-03-14T04:01:18;10.90;75.60
40622;DHT22;26324;52.040;11.528;2023-03-14T04:03:50;11.00;75.20
40622;DHT22;26324;52.040;11.528;2023-03-14T04:06:20;11.10;74.80
40622;DHT22;26324;52.040;11.528;2023-03-14T04:08:51;11.10;75.00
40622;DHT22;26324;52.040;11.528;2023-03-14T04:11:34;11.10;75.00
40622;DHT22;26324;52.040;11.528;2023-03-14T04:14:26;11.20;74.70
40622;DHT22;26324;52.040;11.528;2023-03-14T04:17:15;11.10;75.20
40622;DHT22;26324;52.040;11.528;2023-03-14T04:19:44;11.10;75.10
40622;DHT22;26324;52.040;11.528;2023-03-14T04:22:12;11.10;75.10
40622;DHT22;26324;52.040;11.528;2023-03-14T04:24:47;11.20;74.60
40622;DHT22;26324;52.040;11.528;2023-03-14T04:27:15;11.20;74.60
40622;DHT22;26324;52.040;11.528;2023-03-14T04:29:45;11.20;74.70
40622;DHT22;26324;52.040;11.528;2023-03-14T04:32:15;11.20;74.90
40622;DHT22;26324;52.040;11.528;2023-03-14T04:34:43;11.10;75.40
40622;DHT22;26324;52.040;11.528;2023-03-14T04:37:11;11.00;75.70
40622;DHT22;26324;52.040;11.528;2023-03-14T04:39:43;11.00;75.80
40622;DHT22;26324;52.040;11.528;2023-03-14T04:42:30;10.90;75.90
40622;DHT22;26324;52.040;11.528;2023-03-14T04:44:58;10.90;75.50
40622;DHT22;26324;52.040;11.528;2023-03-14T04:47:28;10.90;75.80
40622;DHT22;26324;52.040;11.528;2023-03-14T04:49:56;11.00;75.60
40622;DHT22;26324;52.040;11.528;2023-03-14T04:52:26;11.00;75.40
40622;DHT22;26324;52.040;11.528;2023-03-14T04:54:53;11.00;75.50
40622;DHT22;26324;52.040;11.528;2023-03-14T04:57:23;11.00;75.60
40622;DHT22;26324;52.040;11.528;2023-03-14T04:59:57;10.90;75.80
40622;DHT22;26324;52.040;11.528;2023-03-14T05:02:59;10.90;75.90
40622;DHT22;26324;52.040;11.528;2023-03-14T05:05:55;10.90;75.80
40622;DHT22;26324;52.040;11.528;2023-03-14T05:08:42;11.00;75.50
40622;DHT22;26324;52.040;11.528;2023-03-14T05:11:33;10.90;75.60
40622;DHT22;26324;52.040;11.528;2023-03-14T05:14:20;11.10;74.90
40622;DHT22;26324;52.040;11.528;2023-03-14T05:17:18;11.10;74.40
40622;DHT22;26324;52.040;11.528;2023-03-14T05:20:12;11.20;74.10
40622;DHT22;26324;52.040;11.528;2023-03-14T05:23:11;11.20;74.10
40622;DHT22;26324;52.040;11.528;2023-03-14T05:25:50;11.10;74.00
40622;DHT22;26324;52.040;11.528;2023-03-14T05:28:38;11.10;74.40
40622;DHT22;26324;52.040;11.528;2023-03-14T05:31:28;11.10;74.70
40622;DHT22;26324;52.040;11.528;2023-03-14T05:34:07;10.90;75.30
40622;DHT22;26324;52.040;11.528;2023-03-14T05:36:47;10.80;75.50
40622;DHT22;26324;52.040;11.528;2023-03-14T05:39:54;10.70;75.80
40622;DHT22;26324;52.040;11.528;2023-03-14T05:42:33;10.70;76.00
40622;DHT22;26324;52.040;11.528;2023-03-14T05:45:18;10.60;76.40
40622;DHT22;26324;52.040;11.528;2023-03-14T05:48:01;10.50;76.90
40622;DHT22;26324;52.040;11.528;2023-03-14T05:50:41;10.40;77.30
40622;DHT22;26324;52.040;11.528;2023-03-14T05:53:27;10.30;77.60
40622;DHT22;26324;52.040;11.528;2023-03-14T05:56:33;10.40;77.90
40622;DHT22;26324;52.040;11.528;2023-03-14T05:59:08;10.30;77.80
40622;DHT22;26324;52.040;11.528;2023-03-14T06:01:59;10.40;77.40
40622;DHT22;26324;52.040;11.528;2023-03-14T06:04:29;10.50;77.30
40622;DHT22;26324;52.040;11.528;2023-03-14T06:06:59;10.50;76.80
40622;DHT22;26324;52.040;11.528;2023-03-14T06:09:26;10.60;76.30
40622;DHT22;26324;52.040;11.528;2023-03-14T06:11:56;10.60;76.30
40622;DHT22;26324;52.040;11.528;2023-03-14T06:14:24;10.60;76.30
40622;DHT22;26324;52.040;11.528;2023-03-14T06:16:52;10.70;75.80
40622;DHT22;26324;52.040;11.528;2023-03-14T06:19:22;10.80;75.60
40622;DHT22;26324;52.040;11.528;2023-03-14T06:21:51;10.90;75.40
40622;DHT22;26324;52.040;11.528;2023-03-14T06:24:18;11.00;75.00
40622;DHT22;26324;52.040;11.528;2023-03-14T06:26:48;11.10;75.00
40622;DHT22;26324;52.040;11.528;2023-03-14T06:29:16;11.10;74.60
40622;DHT22;26324;52.040;11.528;2023-03-14T06:31:44;11.10;74.30
40622;DHT22;26324;52.040;11.528;2023-03-14T06:34:14;11.20;73.90
40622;DHT22;26324;52.040;11.528;2023-03-14T06:36:43;11.30;74.10
40622;DHT22;26324;52.040;11.528;2023-03-14T06:39:10;11.20;73.70
40622;DHT22;26324;52.040;11.528;2023-03-14T06:41:42;11.30;73.40
40622;DHT22;26324;52.040;11.528;2023-03-14T06:44:10;11.30;73.50
40622;DHT22;26324;52.040;11.528;2023-03-14T06:46:38;11.40;73.70
40622;DHT22;26324;52.040;11.528;2023-03-14T06:49:05;11.40;73.80
40622;DHT22;26324;52.040;11.528;2023-03-14T06:51:33;11.40;73.70
40622;DHT22;26324;52.040;11.528;2023-03-14T06:54:04;11.40;73.50
40622;DHT22;26324;52.040;11.528;2023-03-14T06:56:31;11.50;73.40
40622;DHT22;26324;52.040;11.528;2023-03-14T06:58:59;11.50;73.20
40622;DHT22;26324;52.040;11.528;2023-03-14T07:01:30;11.50;73.30
40622;DHT22;26324;52.040;11.528;2023-03-14T07:04:05;11.50;73.30
40622;DHT22;26324;52.040;11.528;2023-03-14T07:06:35;11.50;73.60
40622;DHT22;26324;52.040;11.528;2023-03-14T07:09:04;11.40;74.00
40622;DHT22;26324;52.040;11.528;2023-03-14T07:11:34;11.40;74.20
40622;DHT22;26324;52.040;11.528;2023-03-14T07:14:02;11.30;74.20
40622;DHT22;26324;52.040;11.528;2023-03-14T07:16:30;11.30;74.60
40622;DHT22;26324;52.040;11.528;2023-03-14T07:19:00;11.20;74.70
40622;DHT22;26324;52.040;11.528;2023-03-14T07:21:28;11.20;74.60
40622;DHT22;26324;52.040;11.528;2023-03-14T07:23:55;11.20;74.70
40622;DHT22;26324;52.040;11.528;2023-03-14T07:26:23;11.20;74.80
40622;DHT22;26324;52.040;11.528;2023-03-14T07:28:52;11.20;74.40
40622;DHT22;26324;52.040;11.528;2023-03-14T07:31:20;11.30;74.50
40622;DHT22;26324;52.040;11.528;2023-03-14T07:33:47;11.60;71.50
40622;DHT22;26324;52.040;11.528;2023-03-14T07:36:16;11.80;71.30
40622;DHT22;26324;52.040;11.528;2023-03-14T07:38:51;12.00;70.40
40622;DHT22;26324;52.040;11.528;2023-03-14T07:41:32;12.10;70.10
40622;DHT22;26324;52.040;11.528;2023-03-14T07:44:18;12.20;70.30
40622;DHT22;26324;52.040;11.528;2023-03-14T07:46:45;12.20;71.10
40622;DHT22;26324;52.040;11.528;2023-03-14T07:49:13;12.30;69.30
40622;DHT22;26324;52.040;11.528;2023-03-14T07:51:40;12.40;69.60
40622;DHT22;26324;52.040;11.528;2023-03-14T07:54:07;12.40;70.30
40622;DHT22;26324;52.040;11.528;2023-03-14T07:56:35;12.40;69.50
40622;DHT22;26324;52.040;11.528;2023-03-14T07:59:02;12.40;70.40
40622;DHT22;26324;52.040;11.528;2023-03-14T08:01:30;12.40;70.10
40622;DHT22;26324;52.040;11.528;2023-03-14T08:03:58;12.30;70.30
40622;DHT22;26324;52.040;11.528;2023-03-14T08:06:25;12.30;70.10
40622;DHT22;26324;52.040;11.528;2023-03-14T08:08:53;12.30;69.60
40622;DHT22;26324;52.040;11.528;2023-03-14T08:11:20;12.40;70.10
40622;DHT22;26324;52.040;11.528;2023-03-14T08:13:47;12.50;70.30
40622;DHT22;26324;52.040;11.528;2023-03-14T08:16:17;12.70;69.80
40622;DHT22;26324;52.040;11.528;2023-03-14T08:18:45;13.00;68.00
40622;DHT22;26324;52.040;11.528;2023-03-14T08:21:13;13.10;68.90
40622;DHT22;26324;52.040;11.528;2023-03-14T08:23:41;13.30;65.70
40622;DHT22;26324;52.040;11.528;2023-03-14T08:26:08;13.50;66.00
40622;DHT22;26324;52.040;11.528;2023-03-14T08:28:35;13.60;65.90
40622;DHT22;26324;52.040;11.528;2023-03-14T08:31:03;13.70;64.70
40622;DHT22;26324;52.040;11.528;2023-03-14T08:33:30;13.90;64.70
40622;DHT22;26324;52.040;11.528;2023-03-14T08:35:59;13.80;62.90
40622;DHT22;26324;52.040;11.528;2023-03-14T08:38:27;13.60;64.80
40622;DHT22;26324;52.040;11.528;2023-03-14T08:40:59;13.70;65.00
40622;DHT22;26324;52.040;11.528;2023-03-14T08:43:27;13.60;63.10
40622;DHT22;26324;52.040;11.528;2023-03-14T08:45:58;13.60;63.10
40622;DHT22;26324;52.040;11.528;2023-03-14T08:48:26;13.70;64.10
40622;DHT22;26324;52.040;11.528;2023-03-14T08:50:53;13.80;62.90
40622;DHT22;26324;52.040;11.528;2023-03-14T08:53:21;13.80;63.10
40622;DHT22;26324;52.040;11.528;2023-03-14T08:55:53;13.80;64.10
40622;DHT22;26324;52.040;11.528;2023-03-14T08:58:21;13.80;63.00
40622;DHT22;26324;52.040;11.528;2023-03-14T09:00:50;13.80;63.60
40622;DHT22;26324;52.040;11.528;2023-03-14T09:03:18;13.80;63.70
40622;DHT22;26324;52.040;11.528;2023-03-14T09:05:45;13.60;63.40
40622;DHT22;26324;52.040;11.528;2023-03-14T09:08:12;13.70;63.60
40622;DHT22;26324;52.040;11.528;2023-03-14T09:10:40;13.70;63.70
40622;DHT22;26324;52.040;11.528;2023-03-14T09:13:07;13.70;63.40
40622;DHT22;26324;52.040;11.528;2023-03-14T09:15:34;13.60;64.00
40622;DHT22;26324;52.040;11.528;2023-03-14T09:18:02;13.50;63.80
40622;DHT22;26324;52.040;11.528;2023-03-14T09:20:29;13.60;64.60
40622;DHT22;26324;52.040;11.528;2023-03-14T09:22:56;13.60;64.00
40622;DHT22;26324;52.040;11.528;2023-03-14T09:25:24;13.60;64.60
40622;DHT22;26324;52.040;11.528;2023-03-14T09:27:52;13.60;63.00
40622;DHT22;26324;52.040;11.528;2023-03-14T09:30:19;13.50;63.30
40622;DHT22;26324;52.040;11.528;2023-03-14T09:32:46;13.70;64.90
40622;DHT22;26324;52.040;11.528;2023-03-14T09:35:15;13.80;64.40
40622;DHT22;26324;52.040;11.528;2023-03-14T09:37:42;14.10;64.30
40622;DHT22;26324;52.040;11.528;2023-03-14T09:40:14;14.30;63.00
40622;DHT22;26324;52.040;11.528;2023-03-14T09:42:42;14.30;62.70
40622;DHT22;26324;52.040;11.528;2023-03-14T09:45:13;14.30;64.00
40622;DHT22;26324;52.040;11.528;2023-03-14T09:47:41;14.30;63.80
40622;DHT22;26324;52.040;11.528;2023-03-14T09:50:26;14.30;63.10
40622;DHT22;26324;52.040;11.528;2023-03-14T09:53:03;14.40;62.50
40622;DHT22;26324;52.040;11.528;2023-03-14T09:55:32;14.40;64.00
40622;DHT22;26324;52.040;11.528;2023-03-14T09:58:08;14.70;63.10
40622;DHT22;26324;52.040;11.528;2023-03-14T10:00:37;14.80;62.20
40622;DHT22;26324;52.040;11.528;2023-03-14T10:05:41;14.70;61.30
40622;DHT22;26324;52.040;11.528;2023-03-14T10:08:15;14.60;62.30
40622;DHT22;26324;52.040;11.528;2023-03-14T10:10:42;14.70;63.50
40622;DHT22;26324;52.040;11.528;2023-03-14T10:15:38;14.60;61.70
40622;DHT22;26324;52.040;11.528;2023-03-14T10:18:11;14.40;63.40
40622;DHT22;26324;52.040;11.528;2023-03-14T10:20:44;14.40;62.20
40622;DHT22;26324;52.040;11.528;2023-03-14T10:25:42;14.40;63.90
40622;DHT22;26324;52.040;11.528;2023-03-14T10:28:28;14.40;63.70
40622;DHT22;26324;52.040;11.528;2023-03-14T10:30:57;14.60;63.90
40622;DHT22;26324;52.040;11.528;2023-03-14T10:33:29;14.80;62.90
40622;DHT22;26324;52.040;11.528;2023-03-14T10:36:06;14.80;60.50
40622;DHT22;26324;52.040;11.528;2023-03-14T10:38:35;14.80;61.90
40622;DHT22;26324;52.040;11.528;2023-03-14T10:41:24;14.80;62.80
40622;DHT22;26324;52.040;11.528;2023-03-14T10:43:57;14.70;59.80
40622;DHT22;26324;52.040;11.528;2023-03-14T10:46:27;14.70;60.80
40622;DHT22;26324;52.040;11.528;2023-03-14T10:49:29;14.50;61.40
40622;DHT22;26324;52.040;11.528;2023-03-14T10:54:35;14.30;61.60
40622;DHT22;26324;52.040;11.528;2023-03-14T10:57:04;14.10;63.10
40622;DHT22;26324;52.040;11.528;2023-03-14T10:59:39;14.10;62.80
40622;DHT22;26324;52.040;11.528;2023-03-14T11:07:42;13.70;63.20
40622;DHT22;26324;52.040;11.528;2023-03-14T11:13:26;13.60;65.00
40622;DHT22;26324;52.040;11.528;2023-03-14T11:18:55;13.90;64.90
40622;DHT22;26324;52.040;11.528;2023-03-14T11:21:29;14.00;63.40
40622;DHT22;26324;52.040;11.528;2023-03-14T11:24:38;14.10;63.90
40622;DHT22;26324;52.040;11.528;2023-03-14T11:27:18;14.40;62.10
40622;DHT22;26324;52.040;11.528;2023-03-14T11:32:56;14.80;61.30
40622;DHT22;26324;52.040;11.528;2023-03-14T11:35:34;14.80;61.70
40622;DHT22;26324;52.040;11.528;2023-03-14T11:40:58;14.70;61.10
40622;DHT22;26324;52.040;11.528;2023-03-14T11:43:32;15.00;60.00
40622;DHT22;26324;52.040;11.528;2023-03-14T11:46:15;14.80;60.10
40622;DHT22;26324;52.040;11.528;2023-03-14T11:51:31;14.60;60.80
40622;DHT22;26324;52.040;11.528;2023-03-14T11:54:24;14.50;61.60
40622;DHT22;26324;52.040;11.528;2023-03-14T11:56:57;14.30;62.40
40622;DHT22;26324;52.040;11.528;2023-03-14T11:59:30;14.40;62.90
40622;DHT22;26324;52.040;11.528;2023-03-14T12:02:04;14.30;62.90
40622;DHT22;26324;52.040;11.528;2023-03-14T12:07:40;14.30;62.90
40622;DHT22;26324;52.040;11.528;2023-03-14T12:10:15;14.30;64.00
40622;DHT22;26324;52.040;11.528;2023-03-14T12:12:42;14.30;62.50
40622;DHT22;26324;52.040;11.528;2023-03-14T12:15:19;14.40;63.90
40622;DHT22;26324;52.040;11.528;2023-03-14T12:17:55;14.60;63.50
40622;DHT22;26324;52.040;11.528;2023-03-14T12:20:24;14.70;62.00
40622;DHT22;26324;52.040;11.528;2023-03-14T12:23:01;14.80;61.20
40622;DHT22;26324;52.040;11.528;2023-03-14T12:25:32;14.90;62.00
40622;DHT22;26324;52.040;11.528;2023-03-14T12:30:36;15.20;60.60
40622;DHT22;26324;52.040;11.528;2023-03-14T12:41:40;14.70;61.30
40622;DHT22;26324;52.040;11.528;2023-03-14T12:46:58;14.60;62.80
40622;DHT22;26324;52.040;11.528;2023-03-14T12:49:32;14.50;61.50
40622;DHT22;26324;52.040;11.528;2023-03-14T12:52:16;14.30;63.30
40622;DHT22;26324;52.040;11.528;2023-03-14T12:57:45;13.90;65.80
40622;DHT22;26324;52.040;11.528;2023-03-14T13:00:19;13.90;66.90
40622;DHT22;26324;52.040;11.528;2023-03-14T13:02:48;13.80;66.20
40622;DHT22;26324;52.040;11.528;2023-03-14T13:05:19;13.90;65.00
40622;DHT22;26324;52.040;11.528;2023-03-14T13:10:18;13.90;65.50
40622;DHT22;26324;52.040;11.528;2023-03-14T13:18:29;14.00;66.80
40622;DHT22;26324;52.040;11.528;2023-03-14T13:21:19;14.20;66.50
40622;DHT22;26324;52.040;11.528;2023-03-14T13:24:05;14.50;64.80
40622;DHT22;26324;52.040;11.528;2023-03-14T13:26:39;14.40;64.00
40622;DHT22;26324;52.040;11.528;2023-03-14T13:29:24;14.20;64.90
40622;DHT22;26324;52.040;11.528;2023-03-14T13:31:56;14.00;65.50
40622;DHT22;26324;52.040;11.528;2023-03-14T13:34:32;13.80;67.00
40622;DHT22;26324;52.040;11.528;2023-03-14T13:37:00;13.70;69.40
40622;DHT22;26324;52.040;11.528;2023-03-14T13:39:28;12.60;73.80
40622;DHT22;26324;52.040;11.528;2023-03-14T13:42:00;11.40;76.20
40622;DHT22;26324;52.040;11.528;2023-03-14T13:44:39;10.50;80.40
40622;DHT22;26324;52.040;11.528;2023-03-14T13:47:14;9.80;82.70
40622;DHT22;26324;52.040;11.528;2023-03-14T13:49:42;9.50;84.20
40622;DHT22;26324;52.040;11.528;2023-03-14T13:52:30;9.30;84.90
40622;DHT22;26324;52.040;11.528;2023-03-14T13:54:59;9.00;85.80
40622;DHT22;26324;52.040;11.528;2023-03-14T13:57:26;8.70;85.40
40622;DHT22;26324;52.040;11.528;2023-03-14T14:00:04;8.50;85.90
40622;DHT22;26324;52.040;11.528;2023-03-14T14:02:36;8.30;85.60
40622;DHT22;26324;52.040;11.528;2023-03-14T14:05:04;8.10;85.70
40622;DHT22;26324;52.040;11.528;2023-03-14T14:07:32;8.00;85.60
40622;DHT22;26324;52.040;11.528;2023-03-14T14:10:00;7.90;85.90
40622;DHT22;26324;52.040;11.528;2023-03-14T14:12:41;7.80;86.10
40622;DHT22;26324;52.040;11.528;2023-03-14T14:15:16;7.80;86.30
40622;DHT22;26324;52.040;11.528;2023-03-14T14:17:52;7.80;86.10
40622;DHT22;26324;52.040;11.528;2023-03-14T14:20:25;7.60;86.40
40622;DHT22;26324;52.040;11.528;2023-03-14T14:23:00;7.60;86.40
40622;DHT22;26324;52.040;11.528;2023-03-14T14:25:31;7.50;86.90
40622;DHT22;26324;52.040;11.528;2023-03-14T14:28:13;7.40;85.70
40622;DHT22;26324;52.040;11.528;2023-03-14T14:30:41;7.10;83.10
40622;DHT22;26324;52.040;11.528;2023-03-14T14:33:20;6.80;82.30
40622;DHT22;26324;52.040;11.528;2023-03-14T14:35:58;6.60;83.00
40622;DHT22;26324;52.040;11.528;2023-03-14T14:38:28;6.40;82.50
40622;DHT22;26324;52.040;11.528;2023-03-14T14:41:01;6.30;82.90
40622;DHT22;26324;52.040;11.528;2023-03-14T14:43:32;6.20;82.90
40622;DHT22;26324;52.040;11.528;2023-03-14T14:46:01;6.10;83.90
40622;DHT22;26324;52.040;11.528;2023-03-14T14:48:36;6.10;84.50
40622;DHT22;26324;52.040;11.528;2023-03-14T14:51:06;6.10;84.30
40622;DHT22;26324;52.040;11.528;2023-03-14T14:53:42;6.10;84.40
40622;DHT22;26324;52.040;11.528;2023-03-14T14:56:19;6.10;83.10
40622;DHT22;26324;52.040;11.528;2023-03-14T14:58:49;6.00;82.60
40622;DHT22;26324;52.040;11.528;2023-03-14T15:01:20;5.90;81.70
40622;DHT22;26324;52.040;11.528;2023-03-14T15:03:51;5.80;81.00
40622;DHT22;26324;52.040;11.528;2023-03-14T15:06:19;5.60;80.90
40622;DHT22;26324;52.040;11.528;2023-03-14T15:08:48;5.60;80.20
40622;DHT22;26324;52.040;11.528;2023-03-14T15:11:18;5.50;81.10
40622;DHT22;26324;52.040;11.528;2023-03-14T15:13:45;5.40;80.90
40622;DHT22;26324;52.040;11.528;2023-03-14T15:16:15;5.40;81.30
40622;DHT22;26324;52.040;11.528;2023-03-14T15:18:42;5.40;82.70
40622;DHT22;26324;52.040;11.528;2023-03-14T15:21:10;5.30;82.50
40622;DHT22;26324;52.040;11.528;2023-03-14T15:23:37;5.30;83.00
40622;DHT22;26324;52.040;11.528;2023-03-14T15:26:12;5.20;82.00
40622;DHT22;26324;52.040;11.528;2023-03-14T15:28:40;5.20;81.70
40622;DHT22;26324;52.040;11.528;2023-03-14T15:31:09;5.20;81.10
40622;DHT22;26324;52.040;11.528;2023-03-14T15:33:37;5.20;80.50
40622;DHT22;26324;52.040;11.528;2023-03-14T15:36:15;5.20;80.50
40622;DHT22;26324;52.040;11.528;2023-03-14T15:38:43;5.10;80.20
40622;DHT22;26324;52.040;11.528;2023-03-14T15:41:11;5.10;81.10
40622;DHT22;26324;52.040;11.528;2023-03-14T15:43:38;5.10;81.00
40622;DHT22;26324;52.040;11.528;2023-03-14T15:46:07;5.10;81.70
40622;DHT22;26324;52.040;11.528;2023-03-14T15:48:35;5.10;81.00
40622;DHT22;26324;52.040;11.528;2023-03-14T15:51:03;5.10;81.40
40622;DHT22;26324;52.040;11.528;2023-03-14T15:53:30;5.10;81.60
40622;DHT22;26324;52.040;11.528;2023-03-14T15:55:57;5.00;81.30
40622;DHT22;26324;52.040;11.528;2023-03-14T15:58:25;5.00;81.60
40622;DHT22;26324;52.040;11.528;2023-03-14T16:00:52;5.10;81.90
40622;DHT22;26324;52.040;11.528;2023-03-14T16:03:19;5.10;82.20
40622;DHT22;26324;52.040;11.528;2023-03-14T16:05:47;5.20;82.40
40622;DHT22;26324;52.040;11.528;2023-03-14T16:08:14;5.30;82.00
40622;DHT22;26324;52.040;11.528;2023-03-14T16:10:42;5.30;81.50
40622;DHT22;26324;52.040;11.528;2023-03-14T16:13:11;5.30;82.10
40622;DHT22;26324;52.040;11.528;2023-03-14T16:15:39;5.10;82.40
40622;DHT22;26324;52.040;11.528;2023-03-14T16:18:06;5.00;83.60
40622;DHT22;26324;52.040;11.528;2023-03-14T16:20:58;5.10;83.90
40622;DHT22;26324;52.040;11.528;2023-03-14T16:23:27;5.10;82.50
40622;DHT22;26324;52.040;11.528;2023-03-14T16:25:55;5.00;82.80
40622;DHT22;26324;52.040;11.528;2023-03-14T16:28:24;4.90;81.80
40622;DHT22;26324;52.040;11.528;2023-03-14T16:30:51;4.80;82.60
40622;DHT22;26324;52.040;11.528;2023-03-14T16:33:19;4.80;82.90
40622;DHT22;26324;52.040;11.528;2023-03-14T16:35:54;4.80;83.10
40622;DHT22;26324;52.040;11.528;2023-03-14T16:38:23;4.90;82.30
40622;DHT22;26324;52.040;11.528;2023-03-14T16:41:00;5.00;82.00
40622;DHT22;26324;52.040;11.528;2023-03-14T16:43:28;5.50;81.00
40622;DHT22;26324;52.040;11.528;2023-03-14T16:45:59;5.60;80.80
40622;DHT22;26324;52.040;11.528;2023-03-14T16:48:27;5.80;78.90
40622;DHT22;26324;52.040;11.528;2023-03-14T16:50:55;5.80;78.20
40622;DHT22;26324;52.040;11.528;2023-03-14T16:53:23;5.60;77.60
40622;DHT22;26324;52.040;11.528;2023-03-14T16:55:51;5.30;78.80